Time;durP1;ratioP1;P1;durP2;ratioP2;P2;SDS_P1;SDS_P2;PMS_P1;PMS_P2;Temp;Humidity;BMP_temperature;BMP_pressure;BME280_temperature;BME280_humidity;BME280_pressure;Samples;Min_cycle;Max_cycle;Signal;HPM_P1;HPM_P2
2020/12/10 00:02:10;;;;;;;94.03;36.67;;;;;;;1.29;94.87;99882.16;5051301;28;20425;-76
2020/12/10 00:04:35;;;;;;;102.23;36.43;;;;;;;1.14;94.80;99883.72;5051270;28;20436;-76
2020/12/10 00:07:01;;;;;;;95.63;36.40;;;;;;;1.08;95.11;99884.78;5051011;28;20206;-77
2020/12/10 00:09:26;;;;;;;103.47;38.47;;;;;;;1.08;95.32;99882.09;5051225;28;20171;-76
2020/12/10 00:11:52;;;;;;;100.00;38.47;;;;;;;1.07;95.46;99879.66;5051212;28;20175;-76
2020/12/10 00:14:17;;;;;;;111.30;39.83;;;;;;;1.09;95.25;99870.25;5050949;28;20302;-77
2020/12/10 00:16:46;;;;;;;97.70;37.97;;;;;;;1.17;95.57;99879.72;5050886;28;20185;-76
2020/12/10 00:19:12;;;;;;;107.60;39.47;;;;;;;1.22;95.02;99873.53;5051067;28;20183;-76
2020/12/10 00:21:37;;;;;;;94.80;38.57;;;;;;;1.07;95.47;99875.09;5050940;28;20868;-77
2020/12/10 00:24:02;;;;;;;109.73;40.47;;;;;;;1.04;95.46;99877.50;5051015;28;20182;-76
2020/12/10 00:26:28;;;;;;;101.47;38.60;;;;;;;1.05;95.65;99868.38;5050763;28;20232;-76
2020/12/10 00:28:53;;;;;;;100.50;38.10;;;;;;;1.14;95.53;99866.78;5050724;28;20198;-76
2020/12/10 00:31:19;;;;;;;93.33;35.83;;;;;;;1.09;95.70;99864.06;5050844;28;20175;-76
2020/12/10 00:33:44;;;;;;;91.03;37.23;;;;;;;1.09;95.07;99864.88;5051051;28;20250;-77
2020/12/10 00:36:12;;;;;;;97.07;37.57;;;;;;;1.13;95.08;99863.28;5049437;28;20633;-75
2020/12/10 00:38:37;;;;;;;95.80;36.40;;;;;;;1.06;95.15;99864.59;5049524;28;20186;-76
2020/12/10 00:41:03;;;;;;;95.00;37.20;;;;;;;1.07;95.09;99855.47;5050492;28;20418;-76
2020/12/10 00:43:28;;;;;;;92.27;35.60;;;;;;;1.09;95.69;99858.69;5050519;28;20186;-76
2020/12/10 00:45:53;;;;;;;83.20;35.47;;;;;;;1.37;94.77;99849.38;5050293;28;20556;-76
2020/12/10 00:48:19;;;;;;;92.20;36.20;;;;;;;1.20;95.07;99844.22;5050313;28;20187;-76
2020/12/10 00:50:44;;;;;;;91.37;34.90;;;;;;;1.16;94.91;99843.13;5050641;28;20179;-76
2020/12/10 00:53:09;;;;;;;105.63;38.03;;;;;;;1.12;94.94;99842.03;5050555;28;20591;-76
2020/12/10 00:55:35;;;;;;;96.57;36.77;;;;;;;1.13;95.16;99849.81;5050408;28;20202;-77
2020/12/10 00:58:00;;;;;;;95.33;37.83;;;;;;;1.24;94.87;99850.69;5050273;28;20208;-76
2020/12/10 01:00:26;;;;;;;95.03;35.67;;;;;;;1.17;95.00;99850.94;5050614;28;20182;-76
2020/12/10 01:02:51;;;;;;;98.67;37.70;;;;;;;1.16;94.83;99848.50;5049413;28;20638;-77
2020/12/10 01:05:16;;;;;;;94.23;36.50;;;;;;;1.05;94.96;99850.34;5049073;28;20182;-77
2020/12/10 01:07:42;;;;;;;102.10;38.90;;;;;;;1.10;95.18;99846.84;5050221;28;20237;-76
2020/12/10 01:10:07;;;;;;;97.30;37.07;;;;;;;1.14;95.43;99851.44;5050367;28;20217;-76
2020/12/10 01:12:33;;;;;;;89.43;35.83;;;;;;;1.22;95.08;99847.44;5050202;28;20804;-76
2020/12/10 01:14:59;;;;;;;93.47;35.73;;;;;;;1.26;95.17;99845.84;5050277;28;20171;-76
2020/12/10 01:17:25;;;;;;;91.00;35.93;;;;;;;1.31;94.78;99855.81;5050278;28;20225;-76
2020/12/10 01:19:50;;;;;;;94.77;35.73;;;;;;;1.12;94.93;99853.59;5050277;28;20445;-76
2020/12/10 01:22:15;;;;;;;100.00;37.23;;;;;;;0.98;95.22;99839.00;5050360;28;20172;-75
2020/12/10 01:24:41;;;;;;;98.87;36.50;;;;;;;0.91;95.33;99838.47;5049003;28;20175;-76
2020/12/10 01:27:06;;;;;;;103.03;37.40;;;;;;;0.87;95.20;99845.44;5049906;28;20225;-76
2020/12/10 01:29:31;;;;;;;100.63;37.40;;;;;;;0.91;95.44;99833.06;5050290;28;20657;-76
2020/12/10 01:31:57;;;;;;;92.47;35.63;;;;;;;1.14;95.45;99832.59;5050281;28;20199;-76
2020/12/10 01:34:22;;;;;;;96.57;37.33;;;;;;;1.23;95.33;99835.59;5053966;28;20245;-76
2020/12/10 01:36:48;;;;;;;94.93;35.40;;;;;;;1.30;94.94;99833.50;5054107;28;20182;-76
2020/12/10 01:39:13;;;;;;;86.10;34.83;;;;;;;1.37;94.53;99834.03;5054021;28;20179;-76
2020/12/10 01:41:38;;;;;;;76.37;33.47;;;;;;;1.34;94.59;99823.81;5052943;28;20218;-76
2020/12/10 01:44:06;;;;;;;85.70;35.67;;;;;;;1.41;94.32;99820.84;5054001;28;20171;-76
2020/12/10 01:46:32;;;;;;;73.47;33.83;;;;;;;1.36;94.10;99828.91;5053751;28;20198;-77
2020/12/10 01:48:58;;;;;;;75.70;33.00;;;;;;;1.54;93.88;99830.28;5053887;28;20861;-76
2020/12/10 01:51:24;;;;;;;79.83;33.97;;;;;;;1.72;93.48;99827.88;5053738;28;20420;-76
2020/12/10 01:53:49;;;;;;;70.37;32.83;;;;;;;1.81;93.15;99830.06;5053809;28;20171;-76
2020/12/10 01:56:16;;;;;;;75.77;33.93;;;;;;;1.79;92.46;99825.75;5053577;28;20950;-76
2020/12/10 01:58:42;;;;;;;66.77;31.33;;;;;;;1.87;92.42;99826.28;5053632;28;20206;-75
2020/12/10 02:01:07;;;;;;;73.97;32.27;;;;;;;1.65;92.38;99821.97;5053783;28;20209;-76
2020/12/10 02:03:33;;;;;;;70.30;32.67;;;;;;;1.68;92.50;99821.44;5053546;28;20206;-76
2020/12/10 02:05:58;;;;;;;77.63;32.17;;;;;;;1.89;91.94;99819.56;5053526;28;20203;-76
2020/12/10 02:08:23;;;;;;;71.30;32.90;;;;;;;1.98;91.80;99811.72;5053352;28;20670;-76
2020/12/10 02:10:49;;;;;;;73.07;32.57;;;;;;;2.12;91.18;99806.59;5053488;28;20172;-76
2020/12/10 02:13:14;;;;;;;68.57;32.33;;;;;;;2.10;90.96;99801.50;5053248;28;20187;-76
2020/12/10 02:15:46;;;;;;;68.77;32.63;;;;;;;2.12;90.59;99793.94;5053534;28;20172;-76
2020/12/10 02:18:13;;;;;;;71.57;32.47;;;;;;;1.79;90.84;99801.50;5053334;28;20171;-76
2020/12/10 02:20:38;;;;;;;77.90;34.77;;;;;;;1.53;91.55;99791.78;5053674;28;20175;-76
2020/12/10 02:23:05;;;;;;;73.40;33.53;;;;;;;1.74;91.26;99796.13;5053312;28;20175;-76
2020/12/10 02:25:31;;;;;;;74.90;32.77;;;;;;;1.79;91.21;99784.56;5052986;28;20171;-75
2020/12/10 02:27:59;;;;;;;84.47;35.50;;;;;;;1.36;91.79;99786.66;5053010;28;20179;-76
2020/12/10 02:30:26;;;;;;;86.87;36.33;;;;;;;1.09;92.53;99783.38;5053096;28;20646;-75
2020/12/10 02:32:59;;;;;;;87.13;35.40;;;;;;;1.00;93.17;99779.56;5053001;28;20179;-76
2020/12/10 02:35:26;;;;;;;112.13;38.60;;;;;;;0.82;93.85;99784.38;5053037;28;20445;-76
2020/12/10 02:37:53;;;;;;;98.00;36.77;;;;;;;0.83;94.60;99787.84;5052768;28;20780;-76
2020/12/10 02:40:18;;;;;;;113.60;39.10;;;;;;;0.72;94.86;99781.63;5051426;28;20449;-76
2020/12/10 02:42:43;;;;;;;110.50;37.77;;;;;;;0.79;94.88;99784.91;5052825;28;20417;-76
2020/12/10 02:45:09;;;;;;;107.13;37.83;;;;;;;1.00;95.02;99791.13;5052727;28;20694;-76
2020/12/10 02:47:34;;;;;;;90.93;35.80;;;;;;;1.14;95.11;99778.00;5052508;28;20754;-75
2020/12/10 02:50:00;;;;;;;94.83;36.90;;;;;;;1.24;94.61;99772.66;5052623;28;20210;-76
2020/12/10 02:52:25;;;;;;;84.87;33.83;;;;;;;1.50;93.91;99778.88;5052701;28;20195;-76
2020/12/10 02:54:50;;;;;;;81.90;34.07;;;;;;;1.57;94.17;99771.34;5052550;28;20237;-75
2020/12/10 02:57:16;;;;;;;76.50;33.13;;;;;;;1.59;93.92;99765.69;5052513;28;20163;-76
2020/12/10 02:59:41;;;;;;;86.53;35.00;;;;;;;1.68;93.67;99770.28;5052510;28;20171;-76
2020/12/10 03:02:07;;;;;;;84.27;35.27;;;;;;;1.34;93.87;99761.09;5052512;28;20171;-76
2020/12/10 03:04:32;;;;;;;96.93;36.23;;;;;;;1.23;94.07;99759.47;5051300;28;20202;-76
2020/12/10 03:06:57;;;;;;;90.27;36.60;;;;;;;1.14;94.10;99761.84;5052108;28;20282;-76
2020/12/10 03:09:22;;;;;;;110.73;39.07;;;;;;;1.03;94.27;99744.91;5052316;28;20836;-76
2020/12/10 03:11:48;;;;;;;107.73;40.43;;;;;;;1.00;94.61;99750.81;5052337;28;20171;-76
2020/12/10 03:14:13;;;;;;;108.30;38.37;;;;;;;1.13;94.43;99744.91;5052293;28;20184;-76
2020/12/10 03:16:38;;;;;;;108.43;37.37;;;;;;;1.40;94.46;99749.25;5052012;28;20175;-76
2020/12/10 03:19:04;;;;;;;96.30;38.57;;;;;;;1.25;94.44;99746.56;5052194;28;20179;-76
2020/12/10 03:21:29;;;;;;;97.27;36.67;;;;;;;1.32;94.20;99757.88;5052159;28;20588;-76
2020/12/10 03:23:54;;;;;;;106.50;38.20;;;;;;;1.13;94.42;99736.84;5052011;28;20626;-76
2020/12/10 03:26:20;;;;;;;107.10;38.57;;;;;;;1.30;94.33;99739.31;5052006;28;20242;-76
2020/12/10 03:28:45;;;;;;;101.13;38.40;;;;;;;1.55;94.00;99741.19;5052051;28;20183;-76
2020/12/10 03:31:10;;;;;;;96.27;37.40;;;;;;;1.26;93.99;99742.78;5051910;28;20170;-76
2020/12/10 03:33:36;;;;;;;104.00;39.40;;;;;;;1.05;94.71;99737.38;5051887;28;20271;-76
2020/12/10 03:36:01;;;;;;;120.70;41.53;;;;;;;0.96;94.93;99738.97;5051729;28;20171;-76
2020/12/10 03:38:26;;;;;;;113.20;39.90;;;;;;;0.87;95.04;99730.63;5051426;28;20171;-75
2020/12/10 03:40:52;;;;;;;112.50;39.77;;;;;;;1.04;95.30;99729.59;5051549;28;20175;-75
2020/12/10 03:43:17;;;;;;;116.43;38.97;;;;;;;1.04;95.35;99737.66;5050893;28;20184;-76
2020/12/10 03:45:42;;;;;;;136.93;42.73;;;;;;;0.78;95.83;99723.31;5051221;28;20175;-76
2020/12/10 03:48:08;;;;;;;135.90;43.37;;;;;;;0.76;96.05;99728.16;5051534;28;20290;-76
2020/12/10 03:50:33;;;;;;;128.07;41.60;;;;;;;0.83;96.16;99720.66;5050182;28;20258;-76
2020/12/10 03:52:58;;;;;;;136.50;42.23;;;;;;;0.92;96.33;99727.13;5051001;28;20183;-76
2020/12/10 03:55:24;;;;;;;111.23;39.57;;;;;;;1.06;96.37;99725.53;5050709;28;20190;-76
2020/12/10 03:57:49;;;;;;;116.33;40.40;;;;;;;0.91;96.27;99719.34;5051100;28;20179;-76
2020/12/10 04:00:14;;;;;;;108.67;38.37;;;;;;;1.11;95.95;99724.75;5051586;28;20254;-76
2020/12/10 04:02:40;;;;;;;101.60;37.50;;;;;;;1.36;95.97;99723.97;5051203;28;20171;-76
2020/12/10 04:05:05;;;;;;;96.27;36.50;;;;;;;1.46;95.39;99713.22;5051231;28;20534;-76
2020/12/10 04:07:30;;;;;;;95.50;37.07;;;;;;;1.10;95.33;99718.56;5049747;28;20195;-76
2020/12/10 04:09:55;;;;;;;103.97;37.27;;;;;;;0.94;95.34;99721.47;5051016;28;20175;-76
2020/12/10 04:12:21;;;;;;;105.50;36.13;;;;;;;1.07;95.41;99727.16;5051130;28;20176;-75
2020/12/10 04:14:46;;;;;;;119.60;38.50;;;;;;;0.97;95.67;99729.00;5049760;28;20261;-76
2020/12/10 04:17:11;;;;;;;110.90;37.20;;;;;;;1.17;95.12;99716.44;5050941;28;20184;-75
2020/12/10 04:19:37;;;;;;;94.73;36.37;;;;;;;1.36;95.21;99729.34;5050937;28;20172;-76
2020/12/10 04:22:02;;;;;;;107.40;36.40;;;;;;;1.08;95.21;99725.28;5051019;28;20193;-76
2020/12/10 04:24:28;;;;;;;121.63;39.73;;;;;;;0.96;95.41;99722.81;5050876;28;20175;-76
2020/12/10 04:26:54;;;;;;;119.13;37.67;;;;;;;1.05;95.42;99720.44;5051083;28;20284;-75
2020/12/10 04:29:19;;;;;;;113.33;38.97;;;;;;;1.09;95.40;99722.31;5049565;28;20210;-75
2020/12/10 04:31:45;;;;;;;114.77;39.07;;;;;;;1.03;95.71;99719.91;5051053;28;20199;-75
2020/12/10 04:34:10;;;;;;;122.63;40.57;;;;;;;0.93;95.59;99711.81;5050705;28;20269;-75
2020/12/10 04:36:35;;;;;;;130.37;42.57;;;;;;;0.80;96.24;99723.88;5050524;28;20202;-75
2020/12/10 04:39:01;;;;;;;131.30;42.17;;;;;;;0.80;96.24;99722.00;5050917;28;20172;-75
2020/12/10 04:41:29;;;;;;;133.67;41.37;;;;;;;0.96;96.67;99728.22;5050441;28;20185;-75
2020/12/10 04:43:54;;;;;;;144.53;43.40;;;;;;;1.11;96.31;99730.94;5050834;28;20638;-76
2020/12/10 04:46:25;;;;;;;107.43;38.80;;;;;;;1.36;96.28;99727.47;5050224;28;20449;-76
2020/12/10 04:48:52;;;;;;;114.90;39.20;;;;;;;1.56;95.85;99737.41;5050328;28;20183;-76
2020/12/10 04:51:20;;;;;;;115.30;41.63;;;;;;;1.70;94.94;99725.03;5050502;28;20522;-75
2020/12/10 04:53:46;;;;;;;103.07;37.93;;;;;;;1.58;95.17;99737.94;5050673;28;20167;-76
2020/12/10 04:56:11;;;;;;;115.07;39.40;;;;;;;1.63;94.65;99737.97;5050546;28;20171;-76
2020/12/10 04:58:39;;;;;;;109.23;39.53;;;;;;;1.75;94.72;99738.50;5050536;28;20175;-75
2020/12/10 05:01:04;;;;;;;107.67;38.03;;;;;;;1.90;94.41;99731.50;5050599;28;20167;-76
2020/12/10 05:03:30;;;;;;;97.37;37.70;;;;;;;2.02;93.99;99734.69;5050414;28;20171;-75
2020/12/10 05:06:09;;;;;;;110.97;40.00;;;;;;;1.83;93.62;99733.63;5050217;28;20219;-75
2020/12/10 05:08:35;;;;;;;101.40;37.30;;;;;;;1.75;93.56;99726.94;5052868;28;20254;-75
2020/12/10 05:11:00;;;;;;;105.30;39.57;;;;;;;1.87;93.30;99734.72;5054509;28;20585;-76
2020/12/10 05:13:25;;;;;;;106.07;35.87;;;;;;;1.79;92.81;99728.81;5054375;28;20745;-75
2020/12/10 05:15:51;;;;;;;97.60;36.73;;;;;;;1.98;92.88;99728.22;5054372;28;20254;-75
2020/12/10 05:18:17;;;;;;;107.27;36.43;;;;;;;2.03;92.37;99730.94;5055249;28;20574;-76
2020/12/10 05:20:57;;;;;;;105.47;35.37;;;;;;;1.90;92.47;99732.31;5064321;28;20171;-76
2020/12/10 05:23:35;;;;;;;102.17;36.27;;;;;;;2.05;92.32;99736.84;5056159;28;20167;-75
2020/12/10 05:26:02;;;;;;;119.83;36.67;;;;;;;2.11;92.23;99733.06;5055387;28;20678;-75
2020/12/10 05:28:45;;;;;;;124.07;38.00;;;;;;;2.09;92.30;99727.13;5054450;28;20171;-76
2020/12/10 05:31:12;;;;;;;136.23;37.33;;;;;;;1.78;92.68;99724.50;5054226;28;20170;-75
2020/12/10 05:33:52;;;;;;;208.03;39.57;;;;;;;1.38;94.11;99724.50;5054280;28;20190;-76
2020/12/10 05:36:18;;;;;;;235.00;41.27;;;;;;;1.33;94.32;99719.13;5054142;28;20262;-76
2020/12/10 05:39:00;;;;;;;176.97;38.00;;;;;;;1.46;94.64;99721.28;5054160;28;20270;-76
2020/12/10 05:41:26;;;;;;;217.23;39.73;;;;;;;1.59;94.57;99715.38;5053950;28;20182;-75
2020/12/10 05:43:51;;;;;;;299.10;41.67;;;;;;;1.40;94.66;99719.66;5054083;28;20417;-75
2020/12/10 05:46:25;;;;;;;272.17;44.93;;;;;;;1.10;95.81;99710.47;5053799;28;20330;-75
2020/12/10 05:48:52;;;;;;;367.70;45.97;;;;;;;1.04;96.22;99713.44;5054015;28;20666;-76
2020/12/10 05:51:19;;;;;;;449.37;48.50;;;;;;;1.01;96.47;99713.97;5052569;28;20417;-75
2020/12/10 05:53:46;;;;;;;338.67;46.87;;;;;;;1.05;96.94;99731.19;5053861;28;20418;-75
2020/12/10 05:56:13;;;;;;;419.83;46.87;;;;;;;1.12;96.76;99726.34;5053885;28;20425;-76
2020/12/10 05:58:48;;;;;;;393.07;46.77;;;;;;;0.97;97.32;99727.13;5053702;28;20440;-75
2020/12/10 06:01:27;;;;;;;422.83;50.50;;;;;;;0.96;97.87;99730.91;5053700;28;20939;-76
2020/12/10 06:03:54;;;;;;;509.47;50.73;;;;;;;0.97;97.53;99719.06;5053611;28;20941;-76
2020/12/10 06:06:21;;;;;;;577.83;53.33;;;;;;;0.89;98.07;99716.91;5053391;28;20477;-76
2020/12/10 06:08:49;;;;;;;338.67;49.40;;;;;;;0.95;98.03;99710.47;5054008;28;20475;-75
2020/12/10 06:11:19;;;;;;;442.20;51.80;;;;;;;1.08;98.13;99723.41;5053500;28;20891;-75
2020/12/10 06:13:45;;;;;;;563.67;55.00;;;;;;;1.04;98.08;99722.31;5053620;28;20472;-75
2020/12/10 06:16:16;;;;;;;545.87;53.20;;;;;;;1.12;98.21;99719.09;5053361;28;20514;-75
2020/12/10 06:19:06;;;;;;;367.70;52.23;;;;;;;1.15;98.36;99717.75;5052862;28;20496;-75
2020/12/10 06:21:38;;;;;;;499.57;50.23;;;;;;;0.96;98.46;99716.66;5053283;28;20433;-75
2020/12/10 06:24:26;;;;;;;523.00;53.43;;;;;;;0.91;98.97;99725.53;5053598;28;20420;-75
2020/12/10 06:26:55;;;;;;;366.73;50.17;;;;;;;1.05;98.78;99723.94;5052937;28;20453;-76
2020/12/10 06:29:23;;;;;;;456.03;51.63;;;;;;;1.09;98.57;99714.25;5051679;28;20436;-76
2020/12/10 06:32:11;;;;;;;460.50;50.27;;;;;;;1.02;98.69;99713.72;5053106;28;20429;-75
2020/12/10 06:34:43;;;;;;;510.20;53.03;;;;;;;0.97;98.51;99712.88;5051782;28;20183;-76
2020/12/10 06:37:28;;;;;;;451.13;50.87;;;;;;;0.96;98.67;99714.75;5052633;28;20422;-75
2020/12/10 06:40:02;;;;;;;436.73;48.50;;;;;;;1.05;98.87;99721.25;5053120;28;20471;-76
2020/12/10 06:42:45;;;;;;;524.10;49.63;;;;;;;0.95;98.58;99718.53;5052908;28;20463;-75
2020/12/10 06:45:26;;;;;;;529.47;53.67;;;;;;;0.92;98.79;99721.75;5052736;28;20449;-76
2020/12/10 06:47:51;;;;;;;608.83;55.10;;;;;;;0.91;99.26;99717.44;5052507;28;20481;-76
2020/12/10 06:50:31;;;;;;;538.90;53.80;;;;;;;0.97;99.16;99719.06;5053048;28;20433;-76
2020/12/10 06:53:15;;;;;;;706.07;58.40;;;;;;;0.94;99.20;99714.22;5052829;28;20243;-76
2020/12/10 06:55:56;;;;;;;454.00;50.17;;;;;;;1.09;99.14;99724.19;5052587;28;20424;-76
2020/12/10 06:58:43;;;;;;;413.20;47.70;;;;;;;1.09;99.37;99721.50;5051052;28;20479;-75
2020/12/10 07:01:36;;;;;;;391.87;50.63;;;;;;;1.02;99.19;99716.41;5052518;28;20425;-76
2020/12/10 07:07:14;;;;;;;497.97;50.40;;;;;;;0.97;99.76;99712.88;5052252;28;20457;-76
2020/12/10 07:10:03;;;;;;;388.80;50.77;;;;;;;1.09;99.43;99716.94;5052396;28;20823;-76
2020/12/10 07:12:32;;;;;;;608.93;54.33;;;;;;;1.16;99.40;99719.38;5052426;28;20664;-75
2020/12/10 07:15:10;;;;;;;443.03;50.10;;;;;;;1.12;99.56;99724.47;5050863;28;20425;-76
2020/12/10 07:17:35;;;;;;;440.63;49.03;;;;;;;1.09;99.41;99729.59;5052067;28;20456;-76
2020/12/10 07:20:00;;;;;;;525.93;53.20;;;;;;;1.03;99.07;99736.84;5052206;28;20456;-75
2020/12/10 07:22:26;;;;;;;513.10;51.57;;;;;;;1.03;99.53;99734.16;5052246;28;20240;-75
2020/12/10 07:24:51;;;;;;;511.57;54.70;;;;;;;1.07;99.26;99739.81;5052181;28;20496;-75
2020/12/10 07:27:16;;;;;;;508.07;53.57;;;;;;;1.00;99.41;99731.97;5051796;28;20211;-75
2020/12/10 07:29:49;;;;;;;506.57;53.70;;;;;;;0.99;99.69;99734.94;5051436;28;20730;-76
2020/12/10 07:32:15;;;;;;;434.30;52.30;;;;;;;1.04;99.61;99733.06;5051780;28;20282;-76
2020/12/10 07:34:42;;;;;;;633.13;71.50;;;;;;;1.01;99.73;99732.78;5050069;28;20423;-75
2020/12/10 07:37:10;;;;;;;598.37;60.90;;;;;;;0.99;99.76;99724.97;5051287;28;20258;-75
2020/12/10 07:39:36;;;;;;;574.97;59.17;;;;;;;0.99;100.00;99727.66;5051829;28;20900;-75
2020/12/10 07:42:01;;;;;;;459.10;54.93;;;;;;;1.07;100.00;99735.22;5051730;28;20442;-76
2020/12/10 07:44:30;;;;;;;407.83;52.07;;;;;;;1.13;100.00;99733.34;5051660;28;20211;-76
2020/12/10 07:46:57;;;;;;;481.50;54.47;;;;;;;1.17;99.89;99729.06;5051307;28;20229;-76
2020/12/10 07:49:26;;;;;;;577.70;56.40;;;;;;;1.11;99.93;99730.94;5051541;28;20488;-76
2020/12/10 07:52:04;;;;;;;440.63;52.40;;;;;;;1.19;99.88;99727.72;5051518;28;20410;-76
2020/12/10 07:54:49;;;;;;;444.90;53.17;;;;;;;1.23;99.79;99729.88;5051505;28;20932;-76
2020/12/10 07:57:32;;;;;;;413.33;50.87;;;;;;;1.30;100.00;99733.09;5051402;28;20414;-76
2020/12/10 08:00:18;;;;;;;423.07;50.80;;;;;;;1.34;99.93;99728.81;5051503;28;20410;-76
2020/12/10 08:03:02;;;;;;;481.27;53.23;;;;;;;1.25;99.86;99725.03;5051168;28;20917;-76
2020/12/10 08:05:28;;;;;;;429.70;50.30;;;;;;;1.21;99.81;99713.19;5051384;28;20416;-75
2020/12/10 08:07:54;;;;;;;360.83;51.40;;;;;;;1.17;99.73;99716.44;5051288;28;20469;-76
2020/12/10 08:10:27;;;;;;;495.17;54.13;;;;;;;1.15;99.89;99717.75;5049995;28;20175;-76
2020/12/10 08:13:12;;;;;;;423.13;55.30;;;;;;;1.16;100.00;99722.88;5051215;28;20406;-76
2020/12/10 08:15:39;;;;;;;406.63;51.17;;;;;;;1.17;99.91;99723.69;5049667;28;20720;-76
2020/12/10 08:18:06;;;;;;;526.17;56.57;;;;;;;1.15;99.97;99729.31;5051146;28;20413;-74
2020/12/10 08:20:36;;;;;;;456.17;52.87;;;;;;;1.19;99.95;99726.91;5051270;28;20824;-75
2020/12/10 08:23:02;;;;;;;457.43;56.13;;;;;;;1.14;100.00;99718.81;5051054;28;20418;-74
2020/12/10 08:25:27;;;;;;;415.33;49.97;;;;;;;1.17;99.95;99726.38;5051026;28;20433;-74
2020/12/10 08:27:52;;;;;;;464.37;55.33;;;;;;;1.10;99.82;99715.88;5050695;28;20257;-73
2020/12/10 08:30:18;;;;;;;484.17;57.90;;;;;;;1.10;100.00;99723.94;5050714;28;20183;-73
2020/12/10 08:32:54;;;;;;;494.73;55.30;;;;;;;1.13;100.00;99720.69;5050896;28;20199;-76
2020/12/10 08:35:20;;;;;;;554.47;60.97;;;;;;;1.18;100.00;99714.53;5050830;28;20552;-73
2020/12/10 08:37:46;;;;;;;638.20;60.70;;;;;;;1.19;100.00;99714.28;5050481;28;20432;-74
2020/12/10 08:40:12;;;;;;;462.47;57.40;;;;;;;1.15;100.00;99721.25;5051033;28;20811;-73
2020/12/10 08:42:38;;;;;;;560.53;59.73;;;;;;;1.16;100.00;99722.88;5049195;28;20537;-75
2020/12/10 08:45:04;;;;;;;528.60;60.00;;;;;;;1.23;100.00;99721.81;5050497;28;20504;-77
2020/12/10 08:47:31;;;;;;;540.67;58.33;;;;;;;1.24;100.00;99718.03;5050349;28;20215;-77
2020/12/10 08:50:23;;;;;;;506.40;58.83;;;;;;;1.19;100.00;99722.34;5050726;28;20418;-77
2020/12/10 08:53:01;;;;;;;635.67;62.23;;;;;;;1.26;100.00;99730.13;5050734;28;20394;-78
2020/12/10 08:55:37;;;;;;;627.33;62.80;;;;;;;1.28;100.00;99719.91;5050501;28;20437;-76
2020/12/10 08:58:03;;;;;;;560.23;59.57;;;;;;;1.29;100.00;99715.34;5050552;28;20755;-77
2020/12/10 09:00:29;;;;;;;641.37;63.50;;;;;;;1.35;100.00;99719.66;5050490;28;20908;-78
2020/12/10 09:02:54;;;;;;;576.53;60.70;;;;;;;1.32;100.00;99723.69;5050607;28;20175;-78
2020/12/10 09:05:19;;;;;;;555.87;58.63;;;;;;;1.33;100.00;99724.50;5050369;28;20171;-77
2020/12/10 09:07:45;;;;;;;557.60;60.90;;;;;;;1.41;100.00;99719.38;5050173;28;20198;-78
2020/12/10 09:10:10;;;;;;;529.60;59.27;;;;;;;1.45;100.00;99730.44;5050328;28;20186;-78
2020/12/10 09:12:36;;;;;;;600.00;60.17;;;;;;;1.43;100.00;99730.69;5050345;28;20592;-78
2020/12/10 09:15:01;;;;;;;661.87;64.17;;;;;;;1.40;100.00;99733.09;5050107;28;20171;-76
2020/12/10 09:17:27;;;;;;;635.57;62.77;;;;;;;1.37;100.00;99729.06;5050095;28;20186;-74
2020/12/10 09:19:52;;;;;;;596.20;66.43;;;;;;;1.35;100.00;99730.44;5050074;28;20180;-73
2020/12/10 09:22:18;;;;;;;702.50;67.00;;;;;;;1.39;100.00;99723.44;5049855;28;20424;-77
2020/12/10 09:24:43;;;;;;;633.87;68.60;;;;;;;1.39;100.00;99721.53;5050173;28;20171;-77
2020/12/10 09:27:08;;;;;;;707.03;69.57;;;;;;;1.39;100.00;99726.13;5049858;28;20264;-77
2020/12/10 09:29:34;;;;;;;652.60;66.20;;;;;;;1.41;100.00;99715.88;5050125;28;20228;-73
2020/12/10 09:32:01;;;;;;;706.13;68.87;;;;;;;1.39;100.00;99716.16;5050095;28;20171;-74
2020/12/10 09:34:26;;;;;;;721.77;71.80;;;;;;;1.41;100.00;99715.88;5050231;28;20313;-73
2020/12/10 09:36:52;;;;;;;659.43;71.17;;;;;;;1.45;100.00;99704.34;5049753;28;20421;-74
2020/12/10 09:39:17;;;;;;;713.60;73.80;;;;;;;1.46;100.00;99710.53;5050117;28;20254;-74
2020/12/10 09:41:43;;;;;;;665.60;69.20;;;;;;;1.44;100.00;99691.94;5050158;28;20525;-73
2020/12/10 09:44:09;;;;;;;655.50;70.27;;;;;;;1.46;100.00;99697.88;5050076;28;20274;-74
2020/12/10 09:46:35;;;;;;;566.77;69.07;;;;;;;1.49;100.00;99691.94;5049618;28;20457;-73
2020/12/10 09:49:00;;;;;;;661.07;74.40;;;;;;;1.51;100.00;99690.88;5050171;28;20402;-73
2020/12/10 09:51:29;;;;;;;605.90;70.27;;;;;;;1.54;100.00;99690.31;5048904;28;20223;-74
2020/12/10 09:54:04;;;;;;;644.90;72.33;;;;;;;1.57;100.00;99692.47;5051265;28;20257;-75
2020/12/10 09:59:36;;;;;;;527.93;66.27;;;;;;;1.67;100.00;99695.97;5031025;28;20422;-73
2020/12/10 10:02:02;;;;;;;572.57;68.60;;;;;;;1.72;100.00;99701.31;5033067;28;20819;-73
2020/12/10 10:04:29;;;;;;;465.30;66.80;;;;;;;1.78;100.00;99692.19;5033566;28;20414;-74
2020/12/10 10:06:54;;;;;;;435.90;64.47;;;;;;;1.69;100.00;99698.38;5033390;28;20485;-73
2020/12/10 10:09:21;;;;;;;437.23;65.33;;;;;;;1.66;100.00;99694.34;5032254;28;20450;-74
2020/12/10 10:11:46;;;;;;;419.83;61.83;;;;;;;1.74;100.00;99696.50;5033413;28;20635;-74
2020/12/10 10:14:12;;;;;;;397.87;64.47;;;;;;;1.72;100.00;99687.06;5033420;28;20258;-73
2020/12/10 10:16:39;;;;;;;383.90;63.23;;;;;;;1.76;100.00;99693.53;5035271;28;20180;-73
2020/12/10 10:19:05;;;;;;;374.07;62.73;;;;;;;1.88;100.00;99691.38;5052614;28;20430;-73
2020/12/10 10:21:32;;;;;;;309.87;58.23;;;;;;;2.02;100.00;99678.13;5051136;28;20437;-73
2020/12/10 10:23:58;;;;;;;286.77;55.90;;;;;;;2.12;100.00;99682.66;5053155;28;20562;-74
2020/12/10 10:26:24;;;;;;;256.30;53.93;;;;;;;2.16;100.00;99681.03;5052886;28;20207;-74
2020/12/10 10:28:52;;;;;;;233.13;52.57;;;;;;;2.15;100.00;99682.91;5052865;28;20179;-74
2020/12/10 10:31:18;;;;;;;226.67;52.40;;;;;;;2.09;100.00;99675.94;5053038;28;20179;-74
2020/12/10 10:33:44;;;;;;;201.83;48.37;;;;;;;2.04;100.00;99678.66;5052290;28;20182;-73
2020/12/10 10:36:10;;;;;;;179.90;47.10;;;;;;;1.99;100.00;99681.34;5053122;28;20183;-73
2020/12/10 10:38:36;;;;;;;180.70;47.07;;;;;;;2.02;100.00;99683.50;5052707;28;20531;-73
2020/12/10 10:41:01;;;;;;;180.63;49.97;;;;;;;2.14;100.00;99675.91;5052898;28;20190;-75
2020/12/10 10:43:26;;;;;;;184.43;49.60;;;;;;;2.17;100.00;99664.63;5052629;28;20206;-75
2020/12/10 10:45:52;;;;;;;185.70;53.83;;;;;;;2.28;100.00;99673.44;5052533;28;20172;-76
2020/12/10 10:48:17;;;;;;;194.37;50.13;;;;;;;2.43;100.00;99675.28;5052335;28;20195;-75
2020/12/10 10:50:43;;;;;;;152.93;46.73;;;;;;;2.50;99.86;99670.41;5052657;28;20176;-79
2020/12/10 10:53:08;;;;;;;143.37;44.07;;;;;;;2.51;100.00;99662.03;5052911;28;20180;-82
2020/12/10 10:55:33;;;;;;;126.40;43.80;;;;;;;2.56;100.00;99661.19;5052510;28;20643;-77
2020/12/10 10:57:59;;;;;;;131.73;42.27;;;;;;;2.42;99.90;99658.28;5052258;28;20187;-76
2020/12/10 11:00:24;;;;;;;121.13;40.40;;;;;;;2.44;99.55;99655.31;5052536;28;20175;-76
2020/12/10 11:02:49;;;;;;;119.20;40.73;;;;;;;2.37;99.35;99653.75;5052443;28;20171;-76
2020/12/10 11:05:15;;;;;;;131.00;42.20;;;;;;;2.31;99.33;99654.84;5052448;28;20627;-74
2020/12/10 11:07:42;;;;;;;132.80;42.07;;;;;;;2.33;99.36;99658.09;5052048;28;20207;-74
2020/12/10 11:10:08;;;;;;;127.57;42.37;;;;;;;2.45;99.23;99654.25;5052339;28;20171;-73
2020/12/10 11:12:34;;;;;;;116.83;40.80;;;;;;;2.50;99.08;99657.72;5052577;28;20173;-75
2020/12/10 11:14:59;;;;;;;109.87;37.53;;;;;;;2.50;98.96;99659.63;5056678;28;20180;-74
2020/12/10 11:17:24;;;;;;;113.03;37.57;;;;;;;2.54;98.93;99655.28;5059750;28;20325;-76
2020/12/10 11:19:50;;;;;;;110.90;38.63;;;;;;;2.35;98.40;99657.81;5053443;28;20168;-76
2020/12/10 11:22:16;;;;;;;119.90;40.63;;;;;;;2.27;98.60;99652.97;5052721;28;20584;-76
2020/12/10 11:24:41;;;;;;;139.67;43.47;;;;;;;2.11;98.47;99654.94;5052257;28;20179;-77
2020/12/10 11:27:07;;;;;;;130.90;42.43;;;;;;;2.12;98.55;99651.16;5052114;28;20199;-76